createdAt,value
2019-06-08T00:00:49.435Z,16.70
2019-06-08T00:03:18.585Z,17.43
2019-06-08T00:05:47.344Z,17.93
2019-06-08T00:08:16.826Z,18.30
2019-06-08T00:10:45.692Z,17.40
2019-06-08T00:13:15.141Z,17.67
2019-06-08T00:15:44.092Z,16.93
2019-06-08T00:18:13.194Z,18.40
2019-06-08T00:20:41.947Z,19.03
2019-06-08T00:23:10.590Z,18.57
2019-06-08T00:25:39.367Z,18.57
2019-06-08T00:28:08.138Z,18.17
2019-06-08T00:30:37.218Z,17.93
2019-06-08T00:33:06.117Z,17.67
2019-06-08T00:35:34.824Z,18.47
2019-06-08T00:38:03.470Z,17.23
2019-06-08T00:40:32.184Z,17.40
2019-06-08T00:43:00.890Z,17.80
2019-06-08T00:45:29.588Z,18.03
2019-06-08T00:47:58.348Z,17.30
2019-06-08T00:50:27.014Z,17.03
2019-06-08T00:52:55.692Z,18.43
2019-06-08T00:55:25.615Z,16.47
2019-06-08T00:57:54.495Z,16.70
2019-06-08T01:00:24.506Z,18.53
2019-06-08T01:02:53.401Z,18.73
2019-06-08T01:05:22.107Z,18.13
2019-06-08T01:07:50.761Z,18.03
2019-06-08T01:10:21.301Z,17.40
2019-06-08T01:12:49.999Z,16.27
2019-06-08T01:15:24.791Z,17.23
2019-06-08T01:18:02.269Z,17.70
2019-06-08T01:20:19.672Z,18.67
2019-06-08T01:22:48.296Z,18.73
2019-06-08T01:25:16.940Z,16.83
2019-06-08T01:27:45.552Z,18.03
2019-06-08T01:30:14.719Z,17.03
2019-06-08T01:32:43.436Z,17.03
2019-06-08T01:35:12.073Z,17.80
2019-06-08T01:37:40.771Z,17.77
2019-06-08T01:40:11.812Z,17.53
2019-06-08T01:42:40.507Z,17.43
2019-06-08T01:45:09.790Z,17.90
2019-06-08T01:47:38.490Z,17.43
2019-06-08T01:50:07.592Z,18.10
2019-06-08T01:52:36.502Z,17.80
2019-06-08T01:55:08.327Z,18.07
2019-06-08T01:57:37.055Z,18.20
2019-06-08T02:00:29.135Z,17.93
2019-06-08T02:02:39.123Z,17.70
2019-06-08T02:05:07.926Z,17.00
2019-06-08T02:07:36.639Z,17.47
2019-06-08T02:10:09.718Z,17.83
2019-06-08T02:12:39.666Z,17.63
2019-06-08T02:15:09.095Z,16.80
2019-06-08T02:17:37.787Z,17.77
2019-06-08T02:20:06.991Z,17.40
2019-06-08T02:22:35.622Z,17.57
2019-06-08T02:25:05.043Z,17.23
2019-06-08T02:27:33.649Z,16.00
2019-06-08T02:30:02.316Z,16.70
2019-06-08T02:32:31.649Z,16.70
2019-06-08T02:35:01.351Z,17.83
2019-06-08T02:37:30.850Z,17.27
2019-06-08T02:39:59.715Z,17.23
2019-06-08T02:42:30.624Z,17.63
2019-06-08T02:44:58.861Z,17.43
2019-06-08T02:47:28.414Z,17.70
2019-06-08T02:49:57.675Z,18.13
2019-06-08T02:52:26.492Z,16.83
2019-06-08T02:54:55.755Z,17.47
2019-06-08T02:57:29.066Z,17.87
2019-06-08T03:00:00.028Z,17.23
2019-06-08T03:02:34.093Z,17.47
2019-06-08T03:05:04.227Z,19.17
2019-06-08T03:07:36.831Z,18.60
2019-06-08T03:10:06.930Z,16.80
2019-06-08T03:12:40.338Z,17.50
2019-06-08T03:15:08.918Z,18.77
2019-06-08T03:17:39.900Z,18.30
2019-06-08T03:20:08.467Z,18.80
2019-06-08T03:22:38.825Z,18.53
2019-06-08T03:25:07.503Z,17.70
2019-06-08T03:27:37.290Z,18.77
2019-06-08T03:30:16.286Z,17.53
2019-06-08T03:32:49.677Z,18.00
2019-06-08T03:35:08.244Z,18.20
2019-06-08T03:37:37.820Z,17.93
2019-06-08T03:40:09.035Z,18.43
2019-06-08T03:42:37.740Z,18.97
2019-06-08T03:45:07.605Z,19.07
2019-06-08T03:47:37.073Z,19.20
2019-06-08T03:50:07.432Z,20.07
2019-06-08T03:52:37.767Z,19.77
2019-06-08T03:55:06.778Z,21.10
2019-06-08T03:57:35.810Z,21.43
2019-06-08T04:00:13.023Z,21.53
2019-06-08T04:02:38.000Z,20.80
2019-06-08T04:05:07.859Z,20.83
2019-06-08T04:07:37.569Z,22.67
2019-06-08T04:10:06.833Z,23.17
2019-06-08T04:12:37.643Z,22.50
2019-06-08T04:15:06.676Z,22.00
2019-06-08T04:17:35.360Z,23.40
2019-06-08T04:20:10.928Z,21.80
2019-06-08T04:22:40.384Z,21.13
2019-06-08T04:25:09.611Z,21.70
2019-06-08T04:27:38.556Z,21.00
2019-06-08T04:30:08.550Z,21.03
2019-06-08T04:32:38.566Z,21.10
2019-06-08T04:35:08.137Z,20.40
2019-06-08T04:37:38.206Z,20.40
2019-06-08T04:40:09.074Z,19.90
2019-06-08T04:42:39.257Z,19.90
2019-06-08T04:45:09.343Z,18.67
2019-06-08T04:47:38.397Z,17.20
2019-06-08T04:50:21.655Z,17.37
2019-06-08T04:52:39.062Z,18.07
2019-06-08T04:55:08.365Z,18.00
2019-06-08T04:57:39.218Z,17.47
2019-06-08T05:00:13.184Z,17.77
2019-06-08T05:02:41.508Z,16.87
2019-06-08T05:05:09.702Z,15.73
2019-06-08T05:07:39.263Z,16.03
2019-06-08T05:10:08.999Z,14.87
2019-06-08T05:12:39.190Z,16.03
2019-06-08T05:15:09.926Z,15.10
2019-06-08T05:17:39.296Z,14.73
2019-06-08T05:20:08.423Z,15.20
2019-06-08T05:22:37.066Z,15.03
2019-06-08T05:25:08.897Z,14.53
2019-06-08T05:27:37.614Z,15.90
2019-06-08T05:30:08.644Z,14.70
2019-06-08T05:32:37.351Z,15.00
2019-06-08T05:35:06.947Z,14.33
2019-06-08T05:37:35.651Z,14.70
2019-06-08T05:40:05.923Z,14.30
2019-06-08T05:42:34.538Z,14.73
2019-06-08T05:45:04.438Z,15.40
2019-06-08T05:47:33.150Z,15.57
2019-06-08T05:50:01.832Z,15.50
2019-06-08T05:52:30.536Z,14.30
2019-06-08T05:54:59.164Z,16.07
2019-06-08T05:57:27.906Z,15.43
2019-06-08T05:59:56.615Z,14.77
2019-06-08T06:02:25.532Z,14.77
2019-06-08T06:04:54.322Z,15.23
2019-06-08T06:07:22.975Z,15.13
2019-06-08T06:09:51.671Z,14.80
2019-06-08T06:12:20.300Z,15.03
2019-06-08T06:14:49.127Z,14.93
2019-06-08T06:17:17.823Z,14.87
2019-06-08T06:19:47.308Z,14.73
2019-06-08T06:22:15.994Z,14.77
2019-06-08T06:24:45.510Z,14.67
2019-06-08T06:27:14.275Z,14.20
2019-06-08T06:29:43.483Z,15.07
2019-06-08T06:32:12.300Z,15.60
2019-06-08T06:34:41.952Z,14.37
2019-06-08T06:37:10.755Z,14.20
2019-06-08T06:39:39.355Z,13.70
2019-06-08T06:42:08.066Z,15.23
2019-06-08T06:44:36.776Z,14.67
2019-06-08T06:47:05.415Z,14.43
2019-06-08T06:49:34.010Z,14.07
2019-06-08T06:52:02.651Z,13.83
2019-06-08T06:54:31.277Z,13.27
2019-06-08T06:56:59.981Z,12.57
2019-06-08T06:59:28.651Z,13.17
2019-06-08T07:01:57.781Z,12.30
2019-06-08T07:04:26.589Z,12.47
2019-06-08T07:06:55.263Z,12.37
2019-06-08T07:09:23.862Z,12.90
2019-06-08T07:11:53.138Z,12.87
2019-06-08T07:14:21.768Z,13.70
2019-06-08T07:16:50.438Z,12.87
2019-06-08T07:19:19.104Z,12.93
2019-06-08T07:21:48.329Z,13.33
2019-06-08T07:24:17.111Z,15.10
2019-06-08T07:26:46.354Z,13.37
2019-06-08T07:29:15.022Z,13.83
2019-06-08T07:31:43.669Z,15.07
2019-06-08T07:34:12.374Z,14.37
2019-06-08T07:36:41.070Z,13.20
2019-06-08T07:39:09.719Z,14.13
2019-06-08T07:41:38.389Z,14.57
2019-06-08T07:44:07.111Z,15.00
2019-06-08T07:46:35.781Z,15.07
2019-06-08T07:49:04.486Z,15.63
2019-06-08T07:51:33.087Z,15.63
2019-06-08T07:54:01.714Z,14.97
2019-06-08T07:56:30.329Z,15.13
2019-06-08T07:58:59.165Z,14.80
2019-06-08T08:01:36.348Z,15.90
2019-06-08T08:03:58.429Z,16.13
2019-06-08T08:06:30.205Z,16.63
2019-06-08T08:08:58.787Z,16.03
2019-06-08T08:11:27.715Z,14.93
2019-06-08T08:13:57.484Z,16.83
2019-06-08T08:16:26.337Z,16.77
2019-06-08T08:18:55.538Z,15.23
2019-06-08T08:21:26.388Z,17.07
2019-06-08T08:23:55.912Z,17.00
2019-06-08T08:26:27.157Z,16.60
2019-06-08T08:28:59.666Z,17.23
2019-06-08T08:31:27.835Z,15.87
2019-06-08T08:34:00.872Z,16.00
2019-06-08T08:36:28.904Z,15.70
2019-06-08T08:39:00.564Z,15.77
2019-06-08T08:41:27.920Z,16.03
2019-06-08T08:44:00.809Z,15.40
2019-06-08T08:46:28.612Z,14.77
2019-06-08T08:49:06.025Z,14.27
2019-06-08T08:51:28.101Z,14.37
2019-06-08T08:54:03.023Z,15.17
2019-06-08T08:56:27.999Z,15.50
2019-06-08T08:58:59.255Z,15.40
2019-06-08T09:01:28.895Z,15.33
2019-06-08T09:04:01.694Z,15.60
2019-06-08T09:06:28.094Z,14.33
2019-06-08T09:09:00.828Z,13.90
2019-06-08T09:11:28.862Z,13.13
2019-06-08T09:14:02.504Z,12.23
2019-06-08T09:16:28.745Z,12.43
2019-06-08T09:19:01.071Z,12.20
2019-06-08T09:21:28.232Z,13.30
2019-06-08T09:24:00.701Z,11.70
2019-06-08T09:26:28.766Z,14.40
2019-06-08T09:29:03.348Z,13.93
2019-06-08T09:31:31.117Z,14.03
2019-06-08T09:34:09.147Z,13.50
2019-06-08T09:36:30.251Z,13.87
2019-06-08T09:39:02.707Z,13.80
2019-06-08T09:41:31.245Z,12.80
2019-06-08T09:44:02.355Z,13.40
2019-06-08T09:46:29.941Z,13.70
2019-06-08T09:49:05.864Z,14.10
2019-06-08T09:51:29.052Z,13.95
2019-06-08T09:54:02.086Z,12.77
2019-06-08T09:56:28.421Z,12.27
2019-06-08T09:59:01.320Z,13.67
2019-06-08T10:01:28.689Z,12.18
2019-06-08T10:04:00.809Z,12.10
2019-06-08T10:06:27.961Z,11.40
2019-06-08T10:08:56.710Z,11.07
2019-06-08T10:11:27.886Z,11.93
2019-06-08T10:13:59.465Z,11.30
2019-06-08T10:16:27.901Z,11.03
2019-06-08T10:18:57.666Z,10.43
2019-06-08T10:21:28.404Z,10.30
2019-06-08T10:23:59.770Z,8.53
2019-06-08T10:26:28.121Z,8.28
2019-06-08T10:29:00.321Z,8.60
2019-06-08T10:31:36.415Z,7.90
2019-06-08T10:34:00.576Z,8.00
2019-06-08T10:36:28.506Z,7.67
2019-06-08T10:39:01.826Z,7.70
2019-06-08T10:41:27.904Z,9.13
2019-06-08T10:43:57.143Z,7.67
2019-06-08T10:46:26.087Z,7.00
2019-06-08T10:48:54.765Z,7.42
2019-06-08T10:51:23.567Z,7.05
2019-06-08T10:53:53.548Z,7.55
2019-06-08T10:56:22.624Z,8.78
2019-06-08T10:58:51.357Z,7.75
2019-06-08T11:01:20.087Z,6.90
2019-06-08T11:03:49.001Z,6.90
2019-06-08T11:06:18.742Z,8.80
2019-06-08T11:08:47.837Z,8.15
2019-06-08T11:11:19.558Z,8.38
2019-06-08T11:13:50.078Z,8.43
2019-06-08T11:16:17.997Z,7.55
2019-06-08T11:18:50.524Z,8.80
2019-06-08T11:21:18.775Z,8.75
2019-06-08T11:24:04.563Z,8.60
2019-06-08T11:26:23.808Z,8.63
2019-06-08T11:28:51.263Z,8.08
2019-06-08T11:31:19.851Z,7.78
2019-06-08T11:33:49.147Z,8.63
2019-06-08T11:36:18.836Z,8.33
2019-06-08T11:38:48.053Z,8.70
2019-06-08T11:41:19.067Z,7.95
2019-06-08T11:43:47.072Z,8.13
2019-06-08T11:46:19.048Z,7.87
2019-06-08T11:48:48.385Z,7.58
2019-06-08T11:51:16.577Z,7.65
2019-06-08T11:53:48.227Z,7.62
2019-06-08T11:56:18.258Z,7.90
2019-06-08T11:58:48.586Z,7.40
2019-06-08T12:01:18.583Z,7.72
2019-06-08T12:03:48.367Z,7.70
2019-06-08T12:06:18.494Z,7.25
2019-06-08T12:08:47.447Z,7.92
2019-06-08T12:11:20.718Z,7.42
2019-06-08T12:13:47.398Z,7.53
2019-06-08T12:16:21.615Z,7.58
2019-06-08T12:18:49.280Z,8.35
2019-06-08T12:21:18.592Z,8.03
2019-06-08T12:23:47.488Z,8.20
2019-06-08T12:26:16.180Z,8.55
2019-06-08T12:28:44.786Z,8.60
2019-06-08T12:31:17.645Z,8.95
2019-06-08T12:33:43.756Z,10.53
2019-06-08T12:36:15.385Z,9.93
2019-06-08T12:38:42.983Z,11.53
2019-06-08T12:41:12.736Z,10.85
2019-06-08T12:43:42.036Z,10.82
2019-06-08T12:46:12.807Z,10.58
2019-06-08T12:48:41.258Z,10.85
2019-06-08T12:51:11.657Z,10.60
2019-06-08T12:53:40.230Z,10.35
2019-06-08T12:56:10.626Z,10.23
2019-06-08T12:58:39.261Z,10.25
2019-06-08T13:01:09.497Z,10.20
2019-06-08T13:03:38.297Z,10.80
2019-06-08T13:06:07.869Z,10.15
2019-06-08T13:08:37.276Z,9.70
2019-06-08T13:11:08.155Z,10.35
2019-06-08T13:13:37.758Z,9.48
2019-06-08T13:16:06.728Z,9.03
2019-06-08T13:18:35.443Z,9.25
2019-06-08T13:21:18.733Z,8.68
2019-06-08T13:23:34.492Z,9.03
2019-06-08T13:26:03.169Z,8.85
2019-06-08T13:28:31.793Z,8.30
2019-06-08T13:31:00.585Z,8.78
2019-06-08T13:33:29.182Z,8.03
2019-06-08T13:35:58.140Z,8.10
2019-06-08T13:38:27.802Z,8.35
2019-06-08T13:40:58.795Z,8.28
2019-06-08T13:43:27.021Z,8.65
2019-06-08T13:45:58.073Z,9.20
2019-06-08T13:48:26.095Z,8.88
2019-06-08T13:50:54.801Z,9.00
2019-06-08T13:53:28.489Z,10.13
2019-06-08T13:55:56.734Z,10.05
2019-06-08T13:58:29.778Z,10.68
2019-06-08T14:00:56.758Z,10.90
2019-06-08T14:03:27.544Z,11.25
2019-06-08T14:05:55.395Z,11.35
2019-06-08T14:08:25.547Z,11.45
2019-06-08T14:10:54.837Z,11.20
2019-06-08T14:13:30.232Z,11.10
2019-06-08T14:15:53.858Z,11.20
2019-06-08T14:18:26.317Z,11.85
2019-06-08T14:20:54.644Z,11.60
2019-06-08T14:23:24.542Z,12.45
2019-06-08T14:25:56.999Z,10.95
2019-06-08T14:28:24.832Z,11.60
2019-06-08T14:30:54.445Z,11.65
2019-06-08T14:33:26.897Z,11.28
2019-06-08T14:35:56.098Z,10.98
2019-06-08T14:38:28.013Z,11.73
2019-06-08T14:40:54.127Z,10.68
2019-06-08T14:43:23.072Z,11.38
2019-06-08T14:45:51.783Z,11.37
2019-06-08T14:48:25.132Z,11.83
2019-06-08T14:50:50.869Z,10.82
2019-06-08T14:53:20.406Z,10.30
2019-06-08T14:56:02.185Z,10.40
2019-06-08T14:58:24.061Z,10.10
2019-06-08T15:00:50.673Z,9.57
2019-06-08T15:03:19.772Z,9.53
2019-06-08T15:05:49.854Z,9.10
2019-06-08T15:08:19.564Z,9.13
2019-06-08T15:10:49.822Z,8.30
2019-06-08T15:13:20.285Z,8.70
2019-06-08T15:15:48.962Z,8.43
2019-06-08T15:18:18.556Z,7.70
2019-06-08T15:20:48.166Z,8.03
2019-06-08T15:23:21.244Z,8.43
2019-06-08T15:25:47.350Z,7.87
2019-06-08T15:28:18.106Z,7.90
2019-06-08T15:30:46.394Z,8.73
2019-06-08T15:33:15.010Z,8.43
2019-06-08T15:35:43.697Z,8.50
2019-06-08T15:38:12.450Z,8.93
2019-06-08T15:40:41.108Z,9.20
2019-06-08T15:43:09.746Z,9.07
2019-06-08T15:45:38.379Z,9.13
2019-06-08T15:48:08.040Z,9.13
2019-06-08T15:50:37.863Z,8.93
2019-06-08T15:53:08.315Z,8.77
2019-06-08T15:55:38.200Z,8.10
2019-06-08T15:58:08.898Z,7.67
2019-06-08T16:00:38.372Z,7.90
2019-06-08T16:03:07.006Z,8.33
2019-06-08T16:05:35.728Z,8.70
2019-06-08T16:08:04.370Z,8.97
2019-06-08T16:10:34.258Z,8.80
2019-06-08T16:13:02.985Z,8.60
2019-06-08T16:15:33.073Z,8.07
2019-06-08T16:18:02.128Z,8.47
2019-06-08T16:20:31.537Z,8.60
2019-06-08T16:23:00.330Z,8.80
2019-06-08T16:25:29.611Z,9.40
2019-06-08T16:28:00.089Z,8.20
2019-06-08T16:30:28.933Z,9.30
2019-06-08T16:32:57.555Z,9.57
2019-06-08T16:35:28.009Z,9.93
2019-06-08T16:37:56.590Z,8.80
2019-06-08T16:40:25.279Z,8.63
2019-06-08T16:42:53.969Z,8.93
2019-06-08T16:45:22.670Z,8.67
2019-06-08T16:47:51.283Z,8.77
2019-06-08T16:50:24.465Z,8.70
2019-06-08T16:52:50.377Z,8.40
2019-06-08T16:55:19.083Z,9.37
2019-06-08T16:57:47.764Z,8.40
2019-06-08T17:00:36.500Z,8.80
2019-06-08T17:02:46.899Z,9.07
2019-06-08T17:05:15.520Z,9.47
2019-06-08T17:07:44.214Z,9.50
2019-06-08T17:10:13.803Z,8.57
2019-06-08T17:12:42.411Z,9.00
2019-06-08T17:15:11.433Z,9.40
2019-06-08T17:17:40.542Z,9.07
2019-06-08T17:20:09.431Z,9.50
2019-06-08T17:22:38.803Z,9.07
2019-06-08T17:25:12.706Z,9.00
2019-06-08T17:27:41.451Z,8.80
2019-06-08T17:30:10.956Z,9.07
2019-06-08T17:32:40.535Z,8.70
2019-06-08T17:35:09.866Z,8.80
2019-06-08T17:37:39.969Z,8.67
2019-06-08T17:40:09.139Z,8.10
2019-06-08T17:42:37.771Z,8.30
2019-06-08T17:45:07.851Z,8.40
2019-06-08T17:47:36.548Z,7.83
2019-06-08T17:50:07.940Z,8.40
2019-06-08T17:52:37.065Z,8.13
2019-06-08T17:55:07.790Z,8.30
2019-06-08T17:57:46.518Z,8.30
2019-06-08T18:00:08.589Z,8.40
2019-06-08T18:02:40.249Z,7.63
2019-06-08T18:05:08.537Z,7.77
2019-06-08T18:07:39.024Z,8.03
2019-06-08T18:10:07.688Z,7.37
2019-06-08T18:12:39.226Z,7.60
2019-06-08T18:15:07.860Z,7.87
2019-06-08T18:17:41.617Z,7.03
2019-06-08T18:20:14.025Z,7.13
2019-06-08T18:22:44.347Z,7.53
2019-06-08T18:25:13.830Z,6.97
2019-06-08T18:27:57.990Z,6.97
2019-06-08T18:30:14.383Z,7.30
2019-06-08T18:32:44.098Z,7.13
2019-06-08T18:35:15.118Z,6.80
2019-06-08T18:37:44.168Z,6.80
2019-06-08T18:40:14.522Z,6.93
2019-06-08T18:42:44.237Z,6.70
2019-06-08T18:45:18.028Z,6.80
2019-06-08T18:47:48.490Z,6.50
2019-06-08T18:50:17.431Z,6.53
2019-06-08T18:52:47.323Z,6.63
2019-06-08T18:55:18.332Z,6.70
2019-06-08T18:57:49.054Z,6.73
2019-06-08T19:00:19.686Z,5.80
2019-06-08T19:02:52.245Z,6.20
2019-06-08T19:05:21.318Z,6.30
2019-06-08T19:07:50.618Z,6.60
2019-06-08T19:10:31.429Z,6.80
2019-06-08T19:13:00.172Z,5.60
2019-06-08T19:15:33.728Z,6.30
2019-06-08T19:18:02.413Z,5.90
2019-06-08T19:20:31.126Z,6.40
2019-06-08T19:22:59.772Z,6.13
2019-06-08T19:25:28.458Z,6.10
2019-06-08T19:27:57.933Z,5.73
2019-06-08T19:30:28.126Z,6.10
2019-06-08T19:32:57.895Z,5.50
2019-06-08T19:35:27.412Z,5.87
2019-06-08T19:37:58.176Z,5.83
2019-06-08T19:40:27.163Z,5.43
2019-06-08T19:43:00.013Z,5.70
2019-06-08T19:45:27.679Z,5.97
2019-06-08T19:47:57.764Z,5.80
2019-06-08T19:50:28.643Z,5.43
2019-06-08T19:52:58.092Z,5.63
2019-06-08T19:55:27.028Z,5.40
2019-06-08T19:57:57.588Z,5.37
2019-06-08T20:00:27.957Z,5.10
2019-06-08T20:02:58.278Z,5.07
2019-06-08T20:05:28.494Z,4.70
2019-06-08T20:07:57.623Z,4.73
2019-06-08T20:10:28.046Z,4.30
2019-06-08T20:12:57.929Z,4.40
2019-06-08T20:15:26.677Z,4.40
2019-06-08T20:17:57.465Z,4.33
2019-06-08T20:20:27.713Z,4.17
2019-06-08T20:22:58.362Z,4.13
2019-06-08T20:25:31.289Z,4.10
2019-06-08T20:27:59.923Z,3.80
2019-06-08T20:30:28.754Z,3.90
2019-06-08T20:32:57.714Z,3.77
2019-06-08T20:35:28.042Z,3.87
2019-06-08T20:37:57.873Z,3.50
2019-06-08T20:40:27.971Z,3.40
2019-06-08T20:42:57.716Z,3.50
2019-06-08T20:45:28.064Z,3.03
2019-06-08T20:47:58.405Z,3.47
2019-06-08T20:50:27.331Z,3.20
2019-06-08T20:52:57.646Z,3.07
2019-06-08T20:55:28.238Z,2.73
2019-06-08T20:57:57.463Z,2.80
2019-06-08T21:00:26.544Z,2.80
2019-06-08T21:03:01.742Z,2.63
2019-06-08T21:05:27.620Z,2.90
2019-06-08T21:07:58.713Z,3.03
2019-06-08T21:10:28.219Z,2.57
2019-06-08T21:12:58.669Z,2.87
2019-06-08T21:15:27.583Z,2.60
2019-06-08T21:17:56.385Z,2.80
2019-06-08T21:20:25.049Z,2.50
2019-06-08T21:22:55.036Z,2.37
2019-06-08T21:25:24.017Z,2.60
2019-06-08T21:27:54.003Z,2.67
2019-06-08T21:30:24.725Z,2.50
2019-06-08T21:32:55.843Z,2.60
2019-06-08T21:35:23.548Z,2.20
2019-06-08T21:37:53.351Z,2.27
2019-06-08T21:40:22.632Z,2.50
2019-06-08T21:42:52.250Z,2.40
2019-06-08T21:45:21.623Z,2.20
2019-06-08T21:47:51.746Z,2.10
2019-06-08T21:50:20.566Z,2.50
2019-06-08T21:52:51.481Z,2.23
2019-06-08T21:55:19.579Z,2.40
2019-06-08T21:57:51.103Z,2.20
2019-06-08T22:00:38.147Z,2.40
2019-06-08T22:02:51.747Z,2.50
2019-06-08T22:05:20.467Z,2.50
2019-06-08T22:07:50.107Z,2.30
2019-06-08T22:10:20.497Z,2.57
2019-06-08T22:12:50.745Z,2.40
2019-06-08T22:15:19.913Z,2.30
2019-06-08T22:17:48.560Z,2.20
2019-06-08T22:20:18.702Z,2.33
2019-06-08T22:22:47.546Z,2.53
2019-06-08T22:25:17.552Z,2.63
2019-06-08T22:27:46.470Z,2.80
2019-06-08T22:30:32.423Z,2.30
2019-06-08T22:32:47.371Z,2.57
2019-06-08T22:35:16.210Z,2.50
2019-06-08T22:37:44.866Z,2.90
2019-06-08T22:40:13.807Z,2.80
2019-06-08T22:42:42.552Z,3.13
2019-06-08T22:45:11.626Z,2.50
2019-06-08T22:47:40.503Z,2.60
2019-06-08T22:50:09.867Z,2.77
2019-06-08T22:52:38.567Z,2.60
2019-06-08T22:55:10.840Z,2.57
2019-06-08T22:57:38.205Z,2.53
2019-06-08T23:00:14.539Z,2.70
2019-06-08T23:02:38.555Z,2.57
2019-06-08T23:05:08.926Z,2.50
2019-06-08T23:07:38.031Z,2.67
2019-06-08T23:10:09.623Z,2.70
2019-06-08T23:12:38.530Z,2.80
2019-06-08T23:15:08.702Z,3.10
2019-06-08T23:17:38.718Z,3.03
2019-06-08T23:20:08.900Z,3.00
2019-06-08T23:22:38.408Z,3.00
2019-06-08T23:25:09.457Z,2.90
2019-06-08T23:27:38.226Z,3.27
2019-06-08T23:30:10.172Z,3.10
2019-06-08T23:32:39.442Z,3.00
2019-06-08T23:35:09.461Z,3.00
2019-06-08T23:37:38.408Z,3.40
2019-06-08T23:40:07.768Z,3.40
2019-06-08T23:42:38.279Z,3.10
2019-06-08T23:45:10.384Z,3.40
2019-06-08T23:47:38.523Z,3.40
2019-06-08T23:50:11.022Z,3.07
2019-06-08T23:52:38.431Z,3.23
2019-06-08T23:55:11.428Z,3.33
2019-06-08T23:57:38.374Z,3.20
